Campo Grande Airport

SBCG · Mato Grosso do Sul, Brazil

METAR history SBCG · Campo Grande Airport

Below you see METARs of the last few days. Select a year to browse through older METARs, from the year 2007 onwards.

May 29, 2024

Time Code Weather Temp. Visibility Ceiling Wind METAR/SPECI
18:00
V
17 °C 10 km+ - 150° 150° 6 kt METAR SBCG 292200Z 15006KT CAVOK 17/07 Q1020
17:00
V
19 °C 10 km+ - 170° 170° 4 kt METAR SBCG 292100Z 17004KT CAVOK 19/07 Q1020
16:00
V
21 °C 10 km+ - 160° 160° 4 kt METAR SBCG 292000Z 16004KT 130V190 CAVOK 21/05 Q1020
15:00
V
21 °C 10 km+ - Var Var 3 kt METAR SBCG 291900Z VRB03KT CAVOK 21/06 Q1020
14:00
V
21 °C 10 km+ - Var Var 3 kt METAR SBCG 291800Z VRB03KT CAVOK 21/05 Q1021
13:00
V
20 °C 10 km+ - 040° 040° 4 kt METAR SBCG 291700Z 04004KT 330V080 CAVOK 20/06 Q1021
12:00
V
19 °C 10 km+ - Var Var 4 kt METAR SBCG 291600Z VRB04KT CAVOK 19/06 Q1022
11:00
V
17 °C 10 km+ - 140° 140° 5 kt METAR SBCG 291500Z 14005KT 070V180 CAVOK 17/07 Q1023
10:00
V
15 °C 10 km+ - 130° 130° 8 kt METAR SBCG 291400Z 13008KT 080V160 CAVOK 15/07 Q1024
09:00
V
13 °C 10 km+ - 130° 130° 9 kt METAR SBCG 291300Z 13009KT CAVOK 13/06 Q1024
08:00
V
11 °C 10 km+ - 110° 110° 11 kt METAR SBCG 291200Z 11011KT CAVOK 11/06 Q1023
07:00
V
10 °C 10 km+ - 110° 110° 11 kt METAR SBCG 291100Z 11011KT CAVOK 10/06 Q1023
06:00
V
9 °C 10 km+ - 120° 120° 10 kt METAR SBCG 291000Z 12010KT CAVOK 09/06 Q1022
05:00
V
10 °C 10 km+ - 110° 110° 11 kt METAR SBCG 290900Z 11011KT CAVOK 10/06 Q1022
04:00
V
10 °C 10 km+ - 110° 110° 9 kt METAR SBCG 290800Z 11009KT CAVOK 10/06 Q1022
03:00
V
10 °C 10 km+ - 120° 120° 8 kt METAR SBCG 290700Z 12008KT CAVOK 10/06 Q1021
02:00
V
10 °C 10 km+ - 140° 140° 6 kt METAR SBCG 290600Z 14006KT CAVOK 10/07 Q1022
01:00
V
10 °C 10 km+ - 120° 120° 7 kt METAR SBCG 290500Z 12007KT CAVOK 10/07 Q1022
00:00
V
10 °C 10 km+ - 130° 130° 6 kt METAR SBCG 290400Z 13006KT CAVOK 10/08 Q1023

May 28, 2024

Time Code Weather Temp. Visibility Ceiling Wind METAR/SPECI
23:00
V
11 °C 10 km+ - 150° 150° 5 kt METAR SBCG 290300Z 15005KT 110V170 CAVOK 11/08 Q1023
22:00
V
11 °C 10 km+ - 140° 140° 4 kt METAR SBCG 290200Z 14004KT CAVOK 11/08 Q1024
21:00
V
12 °C 10 km+ - 140° 140° 3 kt METAR SBCG 290100Z 14003KT CAVOK 12/08 Q1023
20:00
V
12 °C 10 km+ - 130° 130° 4 kt METAR SBCG 290000Z 13004KT CAVOK 12/08 Q1023
19:00
V
13 °C 10 km+ - 140° 140° 6 kt METAR SBCG 282300Z 14006KT CAVOK 13/08 Q1023
18:00
V
13 °C 10 km+ - 140° 140° 4 kt METAR SBCG 282200Z 14004KT CAVOK 13/08 Q1022
17:00
V
14 °C 10 km+ - 150° 150° 4 kt METAR SBCG 282100Z 15004KT 120V180 CAVOK 14/09 Q1022
14:00
M
15 °C 10 km+ 2,500 ft 190° 190° 8 kt METAR SBCG 281800Z 19008KT 140V230 9999 BKN025 15/08 Q1023
13:00
M
15 °C 10 km+ 2,000 ft 150° 150° 10 kt METAR SBCG 281700Z 15010KT 9999 BKN020 15/09 Q1023
12:00
M
14 °C 10 km+ 1,700 ft 150° 150° 10 kt METAR SBCG 281600Z 15010KT 9999 BKN017 SCT050 14/08 Q1024
11:00
M
13 °C 10 km+ 1,500 ft 160° 160° 12 kt METAR SBCG 281500Z 16012KT 9999 BKN015 SCT050 13/08 Q1025
10:40
M
13 °C 10 km+ 1,500 ft 150° 150° 11 kt METAR SBCG 281440Z 15011KT 9999 BKN015 BKN050 13/08 Q1025
10:00
M
12 °C 10 km+ 1,300 ft 130° 130° 12 kt METAR SBCG 281400Z 13012KT 9999 BKN013 BKN050 12/08 Q1025
09:00
M
11 °C 10 km+ 1,100 ft 160° 160° 11 kt METAR SBCG 281300Z 16011KT 9999 BKN011 OVC050 11/08 Q1025
08:40
M
11 °C 10 km+ 1,100 ft 150° 150° 10 kt METAR SBCG 281240Z 15010KT 9999 BKN011 OVC050 11/08 Q1025
08:00
V
11 °C 10 km+ 5,000 ft 160° 160° 14 kt METAR SBCG 281200Z 16014KT 9999 SCT013 OVC050 11/08 Q1025
07:00
V
11 °C 10 km+ 5,000 ft 160° 160° 10 kt METAR SBCG 281100Z 16010KT 9999 SCT013 OVC050 11/08 Q1025
06:10
V
10 °C 10 km+ 5,000 ft 170° 170° 6 kt METAR SBCG 281010Z 17006KT 9999 SCT013 OVC050 10/08 Q1024
06:00
M
10 °C 10 km+ 1,300 ft 170° 170° 8 kt METAR SBCG 281000Z 17008KT 9999 BKN013 OVC050 10/08 Q1024
05:00
M
11 °C 10 km+ 1,300 ft 170° 170° 6 kt METAR SBCG 280900Z 17006KT 9999 BKN013 OVC050 11/08 Q1023
04:00
V
11 °C 10 km+ 4,500 ft 150° 150° 6 kt METAR SBCG 280800Z 15006KT 9999 BKN045 OVC100 11/08 Q1023
03:00
V
10 °C 10 km+ 4,500 ft 140° 140° 7 kt METAR SBCG 280700Z 14007KT 9999 BKN045 OVC100 10/08 Q1022
02:00
V
11 °C 10 km+ 4,500 ft 140° 140° 8 kt METAR SBCG 280600Z 14008KT 9999 BKN045 OVC100 11/08 Q1022
01:00
V
11 °C 10 km+ 3,600 ft 160° 160° 8 kt METAR SBCG 280500Z 16008KT 9999 BKN036 OVC050 11/08 Q1023
00:00
V
11 °C 10 km+ 3,600 ft 170° 170° 10 kt METAR SBCG 280400Z 17010KT 9999 FEW013 OVC036 11/08 Q1023

May 27, 2024

Time Code Weather Temp. Visibility Ceiling Wind METAR/SPECI
23:00
V
11 °C 10 km+ 4,000 ft 170° 170° 10 kt METAR SBCG 280300Z 17010KT 9999 FEW011 SCT033 OVC040 11/09 Q1024
22:00
V
12 °C 10 km+ 3,300 ft 180° 180° 7 kt METAR SBCG 280200Z 18007KT 9999 FEW011 BKN033 OVC042 12/10 Q1024
21:00
M
12 °C 10 km+ 2,000 ft 170° 170° 8 kt METAR SBCG 280100Z 17008KT 9999 SCT006 OVC020 12/11 Q1024
20:00
I
12 °C 10 km+ 500 ft 180° 180° 8 kt METAR SBCG 280000Z 18008KT 9999 OVC005 12/11 Q1024
19:00
L
12 °C 9 km 300 ft 180° 180° 9 kt METAR SBCG 272300Z 18009KT 9000 BKN003 OVC008 12/12 Q1023
18:00
L
12 °C 8 km 200 ft 200° 200° 8 kt METAR SBCG 272200Z 20008KT 8000 BKN002 OVC006 12/12 Q1022
17:00
L
13 °C 900 m 200 ft 210° 210° 8 kt METAR SBCG 272100Z 21008KT 0900 R06/P2000 R24/P2000 FG OVC002 13/13 Q1022
16:19
L
13 °C 2 km 200 ft 230° 230° 10 kt METAR SBCG 272019Z 23010KT 2000 BR OVC002 13/13 Q1022
16:00
L
13 °C 3 km 200 ft 240° 240° 10 kt METAR SBCG 272000Z 24010KT 3000 BR OVC002 13/13 Q1022
15:00
L
13 °C 3 km 200 ft 240° 240° 10 kt METAR SBCG 271900Z 24010KT 3000 BR OVC002 13/13 Q1021
14:30
L
14 °C 4 km 200 ft 240° 240° 10 kt METAR SBCG 271830Z 24010KT 4000 BR BKN002 OVC005 14/14 Q1021
14:00
L
15 °C 5 km 300 ft 240° 240° 9 kt METAR SBCG 271800Z 24009KT 5000 BR BKN003 OVC006 15/14 Q1021
13:21
L
15 °C 3 km 400 ft 240° 240° 9 kt METAR SBCG 271721Z 24009KT 3000 BR OVC004 15/14 Q1021
13:00
I
16 °C 8 km 600 ft 250° 250° 9 kt METAR SBCG 271700Z 25009KT 8000 OVC006 16/14 Q1021
12:13
I
15 °C 8 km 500 ft 270° 270° 4 kt METAR SBCG 271613Z 27004KT 230V300 8000 OVC005 15/15 Q1022
12:00
L
15 °C 3.5 km 300 ft 280° 280° 3 kt METAR SBCG 271600Z 28003KT 210V330 3500 BR OVC003 15/15 Q1022
11:00
L
14 °C 2.2 km 300 ft 260° 260° 4 kt METAR SBCG 271500Z 26004KT 230V300 2200 BR OVC003 14/14 Q1023
10:00
L
14 °C 2 km 200 ft 240° 240° 3 kt METAR SBCG 271400Z 24003KT 190V270 2000 BR VV002 14/14 Q1023
09:24
L
14 °C 500 m 100 ft 200° 200° 3 kt METAR SBCG 271324Z 20003KT 160V240 0500 R06/1300U R24/1600U FG VV001 14/14 Q1023
09:00
L
14 °C 200 m 100 ft 200° 200° 3 kt METAR SBCG 271300Z 20003KT 0200 R24/0550U R06/0600U FG VV001 14/14 Q1023
08:00
L
14 °C 150 m 100 ft 200° 200° 4 kt METAR SBCG 271200Z 20004KT 160V230 0150 R24/0400D R06/0450D FG VV001 14/14 Q1022
07:00
L
14 °C 150 m 100 ft 190° 190° 3 kt METAR SBCG 271100Z 19003KT 0150 R06/0600N R24/0750N FG VV001 14/14 Q1021
06:00
L
13 °C 0 m 100 ft 140° 140° 4 kt METAR SBCG 271000Z 14004KT 0000 R06/0800 R24/1000D FG VV001 13/13 Q1021
05:23
L
13 °C 300 m 100 ft 180° 180° 6 kt METAR SBCG 270923Z 18006KT 0300 R06/0800 R24/1200D FG VV001 13/13 Q1020
05:00
L
13 °C 400 m 100 ft 170° 170° 5 kt METAR SBCG 270900Z 17005KT 0400 R06/1000U R24/1300U FG VV001 13/13 Q1020
04:36
L
14 °C 900 m 100 ft 200° 200° 5 kt METAR SBCG 270836Z 20005KT 0900 0500S R06/1300D R24/1700D FG VV001 14/13 Q1020
04:25
L
14 °C 3 km 100 ft 190° 190° 5 kt METAR SBCG 270825Z 19005KT 3000 0900S R06/P2000 R24/P2000 PRFG BKN001 OVC004 14/13 Q1020
04:16
L
14 °C 6 km 100 ft 200° 200° 6 kt METAR SBCG 270816Z 20006KT 6000 1500S R06/P2000 R24/P2000 BKN001 OVC004 14/14 Q1020
04:00
L
14 °C 10 km+ 300 ft 210° 210° 5 kt METAR SBCG 270800Z 21005KT 9999 BKN003 OVC007 14/14 Q1019
03:00
I
15 °C 10 km+ 700 ft Var Var 2 kt METAR SBCG 270700Z VRB02KT 9999 OVC007 15/14 Q1019
02:00
I
15 °C 10 km+ 800 ft 200° 200° 2 kt METAR SBCG 270600Z 20002KT 9999 BKN008 BKN080 15/14 Q1019
Report a change